Time;durP1;ratioP1;P1;durP2;ratioP2;P2;SDS_P1;SDS_P2;PMS_P1;PMS_P2;Temp;Humidity;BMP_temperature;BMP_pressure;BME280_temperature;BME280_humidity;BME280_pressure;Samples;Min_cycle;Max_cycle;Signal;HPM_P1;HPM_P2
2022/11/12 00:00:22;;;;;;;;;44.25;35.75;;;;;10.19;71.35;102817.91;3042807;22;45211;-87
2022/11/12 00:01:32;;;;;;;;;46.25;36.75;;;;;10.20;71.21;102821.38;3031917;22;46872;-86
2022/11/12 00:02:43;;;;;;;;;46.00;36.00;;;;;10.18;71.33;102820.50;3047483;22;45296;-87
2022/11/12 00:03:54;;;;;;;;;45.50;35.25;;;;;10.16;71.21;102823.13;3058535;22;46436;-87
2022/11/12 00:05:05;;;;;;;;;47.00;37.00;;;;;10.17;71.20;102818.78;3057374;22;45243;-87
2022/11/12 00:06:15;;;;;;;;;48.50;39.75;;;;;10.17;71.24;102816.13;3042645;22;46296;-86
2022/11/12 00:07:25;;;;;;;;;42.25;35.75;;;;;10.16;70.91;102817.00;3047808;22;45252;-86
2022/11/12 00:08:36;;;;;;;;;45.25;35.50;;;;;10.18;71.31;102825.75;3059217;22;45217;-87
2022/11/12 00:09:47;;;;;;;;;45.00;35.75;;;;;10.15;71.28;102816.13;3042911;22;45109;-86
2022/11/12 00:10:57;;;;;;;;;34.25;30.25;;;;;10.14;71.22;102811.75;3047508;22;46107;-86
2022/11/12 00:12:07;;;;;;;;;45.50;37.50;;;;;10.15;71.26;102815.25;3042934;22;44582;-86
2022/11/12 00:13:18;;;;;;;;;40.25;34.75;;;;;10.13;71.31;102813.50;3047110;22;45255;-85
2022/11/12 00:14:28;;;;;;;;;43.50;36.25;;;;;10.15;71.16;102812.63;3042758;22;45188;-86
2022/11/12 00:15:38;;;;;;;;;39.00;32.00;;;;;10.13;71.38;102813.50;3042432;22;47054;-86
2022/11/12 00:16:49;;;;;;;;;49.75;39.75;;;;;10.13;71.16;102813.50;3032029;22;45137;-86
2022/11/12 00:17:59;;;;;;;;;45.00;36.50;;;;;10.16;71.38;102817.00;3031552;22;48065;-87
2022/11/12 00:19:09;;;;;;;;;46.50;37.50;;;;;10.13;71.46;102821.38;3042763;22;45277;-87
2022/11/12 00:20:20;;;;;;;;;43.00;34.75;;;;;10.13;71.24;102818.75;3031686;22;46882;-86
2022/11/12 00:21:30;;;;;;;;;46.25;35.75;;;;;10.11;71.45;102820.50;3047768;22;44563;-87
2022/11/12 00:22:41;;;;;;;;;38.00;32.25;;;;;10.12;71.45;102822.25;3042379;22;47033;-86
2022/11/12 00:23:51;;;;;;;;;34.50;30.75;;;;;10.12;71.56;102826.66;3047242;22;45299;-86
2022/11/12 00:25:03;;;;;;;;;43.25;34.00;;;;;10.15;71.27;102828.41;3042495;22;47254;-87
2022/11/12 00:26:13;;;;;;;;;38.00;32.25;;;;;10.12;71.18;102826.66;3047556;22;45195;-86
2022/11/12 00:27:24;;;;;;;;;38.50;33.25;;;;;10.12;71.46;102831.91;3057842;22;48123;-86
2022/11/12 00:28:34;;;;;;;;;36.50;32.75;;;;;10.13;71.20;102831.00;3058538;22;45247;-86
2022/11/12 00:29:44;;;;;;;;;40.50;32.75;;;;;10.13;71.44;102831.88;3042499;22;46851;-86
2022/11/12 00:30:55;;;;;;;;;35.50;31.50;;;;;10.15;72.02;102825.78;3042750;22;45089;-86
2022/11/12 00:32:06;;;;;;;;;39.50;31.00;;;;;10.14;71.62;102827.53;3047506;22;46242;-86
2022/11/12 00:33:16;;;;;;;;;40.50;33.75;;;;;10.12;71.63;102830.13;3058586;22;44546;-86
2022/11/12 00:34:27;;;;;;;;;36.25;33.25;;;;;10.14;71.54;102830.16;3041949;22;47274;-87
2022/11/12 00:35:37;;;;;;;;;36.00;31.75;;;;;10.13;71.77;102825.75;3027849;22;45077;-86
2022/11/12 00:36:47;;;;;;;;;40.00;33.00;;;;;10.14;71.97;102824.88;3031951;22;45182;-86
2022/11/12 00:37:58;;;;;;;;;35.75;31.25;;;;;10.15;71.51;102837.13;3044061;22;44549;-86
2022/11/12 00:39:09;;;;;;;;;39.50;33.75;;;;;10.13;71.61;102828.38;3027461;22;47617;-86
2022/11/12 00:40:19;;;;;;;;;34.25;31.25;;;;;10.15;71.72;102825.78;3032761;22;45113;-86
2022/11/12 00:41:30;;;;;;;;;39.50;32.75;;;;;10.12;71.43;102821.38;3027424;22;48103;-86
2022/11/12 00:42:40;;;;;;;;;33.00;30.00;;;;;10.11;71.67;102823.13;3032518;22;45197;-86
2022/11/12 00:43:50;;;;;;;;;36.25;33.00;;;;;10.13;71.58;102823.13;3043433;22;45349;-86
2022/11/12 00:45:01;;;;;;;;;36.50;32.25;;;;;10.12;71.66;102824.88;3044057;22;45377;-86
2022/11/12 00:46:11;;;;;;;;;38.50;33.00;;;;;10.12;71.54;102829.28;3027429;22;47814;-87
2022/11/12 00:47:22;;;;;;;;;39.75;32.75;;;;;10.10;71.73;102816.09;3032319;22;45354;-86
2022/11/12 00:48:32;;;;;;;;;37.25;32.25;;;;;10.13;71.44;102824.00;3043633;22;46440;-86
2022/11/12 00:49:42;;;;;;;;;37.75;31.75;;;;;10.11;71.71;102819.63;3042537;22;45351;-86
2022/11/12 00:51:04;;;;;;;;;37.50;33.50;;;;;10.09;71.77;102814.38;3027214;22;47942;-87
2022/11/12 00:52:15;;;;;;;;;32.50;29.75;;;;;10.10;71.78;102817.88;3035247;22;45268;-86
2022/11/12 00:53:25;;;;;;;;;38.25;31.75;;;;;10.11;71.53;102810.00;3042005;22;46990;-86
2022/11/12 00:54:36;;;;;;;;;41.00;33.00;;;;;10.11;71.86;102806.47;3043385;22;45194;-86
2022/11/12 00:55:46;;;;;;;;;40.75;32.25;;;;;10.11;71.79;102815.25;3043778;22;46211;-86
2022/11/12 00:56:56;;;;;;;;;38.25;33.00;;;;;10.09;71.67;102808.22;3044001;22;45077;-86
2022/11/12 00:58:07;;;;;;;;;38.75;32.50;;;;;10.12;71.65;102816.13;3043736;22;46301;-86
2022/11/12 00:59:17;;;;;;;;;37.25;32.25;;;;;10.11;71.55;102806.47;3043994;22;45156;-86
2022/11/12 01:00:27;;;;;;;;;43.50;31.25;;;;;10.11;71.60;102810.00;3043413;22;46227;-85
2022/11/12 01:01:38;;;;;;;;;44.00;33.25;;;;;10.12;71.65;102813.50;3027587;22;44545;-86
2022/11/12 01:02:49;;;;;;;;;39.50;33.00;;;;;10.11;71.87;102812.63;3031545;22;47855;-86
2022/11/12 01:03:59;;;;;;;;;32.00;30.25;;;;;10.11;71.69;102803.84;3043317;22;44592;-86
2022/11/12 01:05:10;;;;;;;;;35.50;32.75;;;;;10.12;71.71;102814.34;3043722;22;45196;-86
2022/11/12 01:06:22;;;;;;;;;37.50;30.25;;;;;10.12;71.83;102810.88;3042728;22;45214;-86
2022/11/12 01:07:33;;;;;;;;;35.50;31.50;;;;;10.10;71.77;102818.72;3027420;22;46943;-86
2022/11/12 01:08:44;;;;;;;;;35.25;31.25;;;;;10.09;71.76;102808.22;3017292;22;44660;-86
2022/11/12 01:09:55;;;;;;;;;40.50;32.50;;;;;10.09;72.10;102811.75;3015927;22;47165;-86
2022/11/12 01:11:18;;;;;;;;;38.00;31.75;;;;;10.12;71.77;102806.47;3032364;22;45215;-85
2022/11/12 01:12:30;;;;;;;;;32.50;28.75;;;;;10.11;72.08;102804.72;3043793;22;45208;-86
2022/11/12 01:13:45;;;;;;;;;34.75;30.25;;;;;10.11;72.01;102804.72;3043743;22;45326;-86
2022/11/12 01:14:55;;;;;;;;;36.75;31.25;;;;;10.12;72.04;102805.63;3043376;22;45464;-86
2022/11/12 01:16:07;;;;;;;;;36.50;30.50;;;;;10.12;72.14;102797.75;3042805;22;44599;-86
2022/11/12 01:17:17;;;;;;;;;31.50;30.00;;;;;10.10;71.87;102802.97;3043470;22;45287;-86
2022/11/12 01:18:28;;;;;;;;;31.25;29.25;;;;;10.12;72.08;102803.84;3043189;22;44529;-86
2022/11/12 01:19:38;;;;;;;;;26.75;26.00;;;;;10.13;72.13;102810.88;3027549;22;46846;-86
2022/11/12 01:20:48;;;;;;;;;38.50;32.50;;;;;10.15;71.82;102807.38;3017370;22;45213;-86
2022/11/12 01:21:59;;;;;;;;;29.75;25.50;;;;;10.16;71.89;102809.13;3032487;22;46674;-86
2022/11/12 01:23:09;;;;;;;;;40.00;30.75;;;;;10.17;71.99;102803.00;3044646;22;45162;-86
2022/11/12 01:24:19;;;;;;;;;34.25;32.25;;;;;10.15;72.03;102789.84;3044343;22;46218;-86
2022/11/12 01:25:30;;;;;;;;;38.00;32.50;;;;;10.17;72.19;102788.13;3044534;22;44592;-86
2022/11/12 01:26:40;;;;;;;;;40.75;32.50;;;;;10.18;72.04;102791.59;3043188;22;46005;-86
2022/11/12 01:27:52;;;;;;;;;33.75;32.25;;;;;10.18;71.94;102783.72;3028305;22;45156;-86
2022/11/12 05:41:05;;;;;;;;;22.25;19.00;;;;;10.77;73.02;102739.06;3023281;22;44783;-88
2022/11/12 05:42:15;;;;;;;;;23.50;20.00;;;;;10.77;73.04;102731.16;3027503;22;45295;-88
2022/11/12 05:43:26;;;;;;;;;23.50;20.00;;;;;10.78;73.04;102735.56;3026195;22;45262;-87
2022/11/12 05:44:36;;;;;;;;;25.50;22.50;;;;;10.81;72.78;102739.94;3028556;22;45233;-87
2022/11/12 05:45:46;;;;;;;;;22.25;20.00;;;;;10.83;73.28;102737.28;3029089;22;45089;-88
2022/11/12 05:46:57;;;;;;;;;23.25;21.50;;;;;10.83;73.14;102745.19;3012198;22;48972;-87
2022/11/12 05:48:07;;;;;;;;;25.00;23.50;;;;;10.87;72.99;102753.06;3018215;22;45156;-87
2022/11/12 05:49:17;;;;;;;;;25.75;21.00;;;;;10.88;72.80;102749.56;3012330;22;46912;-87
2022/11/12 05:50:28;;;;;;;;;22.50;19.50;;;;;10.89;72.96;102742.56;3018290;22;45216;-87
2022/11/12 05:51:38;;;;;;;;;24.75;22.25;;;;;10.87;72.63;102741.66;3013147;22;47056;-87
2022/11/12 05:52:48;;;;;;;;;25.75;22.50;;;;;10.87;72.87;102737.28;3017417;22;44626;-88
2022/11/12 05:54:00;;;;;;;;;22.00;19.75;;;;;10.87;72.75;102737.28;3028733;22;45362;-87
2022/11/12 05:55:10;;;;;;;;;27.50;22.75;;;;;10.87;72.72;102745.19;3012134;22;44582;-87
2022/11/12 05:56:20;;;;;;;;;25.50;22.25;;;;;10.88;72.99;102744.31;3017151;22;45844;-87
2022/11/12 05:57:30;;;;;;;;;28.25;21.50;;;;;10.89;72.76;102740.78;3028828;22;45280;-87
2022/11/12 05:58:41;;;;;;;;;19.50;18.25;;;;;10.88;72.48;102746.94;3029521;22;46156;-87
2022/11/12 05:59:51;;;;;;;;;20.25;19.00;;;;;10.90;72.93;102746.94;3012397;22;44641;-87
2022/11/12 06:01:02;;;;;;;;;21.25;20.50;;;;;10.93;72.88;102753.94;3017848;22;45345;-87
2022/11/12 06:02:13;;;;;;;;;29.00;22.00;;;;;10.92;72.40;102755.69;3028913;22;44593;-87
2022/11/12 06:03:23;;;;;;;;;26.00;22.25;;;;;10.92;72.40;102758.31;3028032;22;45315;-87
2022/11/12 06:04:33;;;;;;;;;24.25;19.25;;;;;10.90;72.79;102752.19;3013090;22;45176;-87
2022/11/12 06:05:44;;;;;;;;;26.00;20.50;;;;;10.91;73.03;102754.81;3002138;22;48041;-87
2022/11/12 06:06:54;;;;;;;;;24.25;22.75;;;;;10.92;72.95;102755.69;3016530;22;45260;-86
2022/11/12 06:08:05;;;;;;;;;27.00;22.00;;;;;10.92;72.55;102755.69;3012396;22;46325;-87
2022/11/12 06:09:15;;;;;;;;;25.25;24.75;;;;;10.91;72.53;102754.81;3002521;22;45354;-87
2022/11/12 06:10:26;;;;;;;;;23.00;21.00;;;;;10.90;72.37;102757.44;3017486;22;46200;-87
2022/11/12 06:11:37;;;;;;;;;25.50;22.25;;;;;10.92;72.60;102755.69;3029455;22;45235;-87
2022/11/12 06:12:47;;;;;;;;;26.75;21.25;;;;;10.92;72.70;102760.94;3012934;22;47831;-87
2022/11/12 06:13:58;;;;;;;;;22.75;22.75;;;;;10.92;72.75;102760.94;3002484;22;44541;-87
2022/11/12 06:15:08;;;;;;;;;26.75;22.50;;;;;10.90;72.46;102757.44;3017223;22;46108;-87
2022/11/12 06:16:19;;;;;;;;;29.00;23.75;;;;;10.91;72.64;102753.97;3013155;22;45322;-87
2022/11/12 06:17:29;;;;;;;;;24.50;21.75;;;;;10.92;72.45;102758.31;3002329;22;47919;-86
2022/11/12 06:18:39;;;;;;;;;22.50;21.25;;;;;10.91;72.21;102759.22;3018116;22;45094;-87
2022/11/12 06:19:49;;;;;;;;;24.25;20.00;;;;;10.91;72.93;102759.22;3012726;22;45913;-86
2022/11/12 06:21:18;;;;;;;;;29.00;21.50;;;;;10.91;72.57;102761.84;3017615;22;44563;-87
2022/11/12 06:22:28;;;;;;;;;21.50;21.00;;;;;10.88;72.69;102760.09;3012698;22;48233;-87
2022/11/12 06:23:39;;;;;;;;;25.25;23.75;;;;;10.89;72.16;102760.97;3017878;22;45256;-87
2022/11/12 06:24:49;;;;;;;;;24.00;22.25;;;;;10.89;72.69;102755.72;3012881;22;47258;-87
2022/11/12 06:25:59;;;;;;;;;25.00;22.75;;;;;10.89;72.41;102755.72;3017341;22;45228;-86
2022/11/12 06:27:10;;;;;;;;;26.00;21.00;;;;;10.88;72.28;102757.47;3012434;22;46051;-87
2022/11/12 06:28:20;;;;;;;;;26.25;22.25;;;;;10.87;72.49;102757.44;3002470;22;44532;-87
2022/11/12 06:29:30;;;;;;;;;22.75;19.50;;;;;10.87;72.70;102757.44;3017888;22;45192;-87
2022/11/12 06:30:41;;;;;;;;;27.00;22.75;;;;;10.83;72.89;102753.97;3029509;22;44610;-87
2022/11/12 06:31:51;;;;;;;;;25.75;22.25;;;;;10.84;72.57;102755.69;3028964;22;51032;-87
2022/11/12 06:33:01;;;;;;;;;23.25;21.50;;;;;10.85;72.58;102760.09;3012812;22;45184;-88
2022/11/12 06:34:11;;;;;;;;;24.75;21.50;;;;;10.85;72.61;102764.47;3002267;22;45894;-86
2022/11/12 06:35:22;;;;;;;;;26.50;22.50;;;;;10.83;72.63;102760.97;3002431;22;45367;-87
2022/11/12 06:36:32;;;;;;;;;22.25;20.00;;;;;10.84;72.70;102763.59;3000747;22;48098;-87
2022/11/12 06:37:46;;;;;;;;;25.50;24.50;;;;;10.84;72.79;102768.00;3016228;22;44708;-88
2022/11/12 06:38:56;;;;;;;;;30.25;24.25;;;;;10.80;72.59;102768.00;3012941;22;48033;-87
2022/11/12 06:40:07;;;;;;;;;26.00;21.50;;;;;10.80;72.59;102770.63;3012238;22;45248;-87
2022/11/12 06:41:18;;;;;;;;;29.25;22.75;;;;;10.81;72.44;102766.25;3012527;22;48769;-87
2022/11/12 06:42:28;;;;;;;;;24.50;23.00;;;;;10.79;72.35;102762.75;3018024;22;45123;-87
2022/11/12 06:43:40;;;;;;;;;27.50;26.50;;;;;10.79;72.46;102768.84;3027704;22;45487;-87
2022/11/12 06:44:50;;;;;;;;;28.00;24.75;;;;;10.77;72.44;102768.00;3013185;22;45094;-87
2022/11/12 06:46:03;;;;;;;;;26.50;23.00;;;;;10.74;72.49;102762.72;3013037;22;46802;-87
2022/11/12 06:47:14;;;;;;;;;27.75;22.75;;;;;10.74;72.30;102762.72;3017977;22;45455;-87
2022/11/12 06:48:24;;;;;;;;;30.00;27.00;;;;;10.71;72.04;102761.88;3028579;22;46092;-87
2022/11/12 06:49:34;;;;;;;;;24.75;22.00;;;;;10.70;72.24;102766.25;3027963;22;45256;-87
2022/11/12 06:50:44;;;;;;;;;25.50;22.00;;;;;10.69;72.30;102775.03;3028655;22;45460;-87
2022/11/12 06:51:55;;;;;;;;;26.75;24.75;;;;;10.65;72.09;102768.88;3029408;22;45163;-87
2022/11/12 06:53:05;;;;;;;;;29.25;23.25;;;;;10.64;71.92;102771.53;3026389;22;46845;-87
2022/11/12 06:54:15;;;;;;;;;31.25;27.50;;;;;10.63;71.91;102769.75;3011594;22;44686;-86
2022/11/12 06:55:26;;;;;;;;;25.00;21.00;;;;;10.61;72.00;102774.16;3000864;22;47118;-86
2022/11/12 06:56:36;;;;;;;;;27.75;27.50;;;;;10.58;72.06;102772.38;3016433;22;45271;-86
2022/11/12 06:57:50;;;;;;;;;28.75;25.75;;;;;10.54;72.20;102776.75;3028450;22;46480;-86
2022/11/12 06:59:02;;;;;;;;;19.25;18.25;;;;;10.52;72.07;102775.03;3012960;22;45432;-86
2022/11/12 07:00:13;;;;;;;;;24.25;20.25;;;;;10.51;71.92;102783.78;3016226;22;46983;-86
2022/11/12 07:01:24;;;;;;;;;29.75;23.75;;;;;10.47;71.88;102781.13;3013152;22;45274;-86
2022/11/12 07:02:35;;;;;;;;;29.50;25.75;;;;;10.43;72.30;102775.84;3015490;22;46000;-86
2022/11/12 07:03:50;;;;;;;;;27.00;23.75;;;;;10.41;71.89;102777.63;3029361;22;44636;-86
2022/11/12 07:05:01;;;;;;;;;26.25;23.25;;;;;10.38;72.06;102775.84;3028288;22;46217;-86
2022/11/12 07:06:17;;;;;;;;;28.25;24.25;;;;;10.39;71.87;102780.25;3028269;22;44835;-86
2022/11/12 07:07:28;;;;;;;;;25.00;23.25;;;;;10.38;72.09;102778.50;3028836;22;46231;-85
2022/11/12 07:08:40;;;;;;;;;27.75;22.00;;;;;10.37;72.05;102781.13;3028971;22;45193;-86
2022/11/12 07:09:50;;;;;;;;;27.50;23.50;;;;;10.34;71.98;102779.38;3012066;22;47917;-86
2022/11/12 07:11:00;;;;;;;;;24.75;22.25;;;;;10.33;72.09;102778.50;3017508;22;45264;-86
2022/11/12 07:12:11;;;;;;;;;28.25;23.50;;;;;10.32;71.67;102775.88;3012778;22;47777;-86
2022/11/12 07:13:21;;;;;;;;;27.25;24.75;;;;;10.30;72.06;102769.72;3018040;22;45456;-86
2022/11/12 07:14:31;;;;;;;;;25.50;21.75;;;;;10.29;72.04;102773.22;3028900;22;45322;-86
2022/11/12 07:15:42;;;;;;;;;25.00;23.50;;;;;10.28;71.81;102776.72;3027919;22;45089;-86
2022/11/12 07:16:52;;;;;;;;;26.25;22.25;;;;;10.27;71.80;102778.50;3028808;22;45314;-86
2022/11/12 07:18:02;;;;;;;;;33.75;25.25;;;;;10.26;72.02;102768.84;3027820;22;45153;-86
2022/11/12 07:19:13;;;;;;;;;29.25;22.75;;;;;10.25;72.12;102774.97;3012846;22;46380;-86
2022/11/12 07:20:23;;;;;;;;;25.25;22.25;;;;;10.22;71.52;102767.94;3016968;22;45209;-85
2022/11/12 07:21:33;;;;;;;;;28.00;25.25;;;;;10.22;72.47;102775.84;3029021;22;46226;-86
2022/11/12 07:22:44;;;;;;;;;28.25;26.00;;;;;10.20;72.17;102769.69;3028308;22;44744;-86
2022/11/12 07:23:54;;;;;;;;;27.00;23.00;;;;;10.18;72.13;102774.09;3028098;22;46102;-86
2022/11/12 07:25:05;;;;;;;;;25.25;22.75;;;;;10.20;71.83;102776.69;3028607;22;44839;-86
2022/11/12 07:26:19;;;;;;;;;29.75;25.25;;;;;10.19;71.95;102775.84;3027856;22;47725;-86
2022/11/12 07:27:30;;;;;;;;;28.00;24.75;;;;;10.17;72.05;102774.97;3028069;22;45169;-86
2022/11/12 07:28:41;;;;;;;;;29.75;26.00;;;;;10.16;71.82;102770.59;3027262;22;45220;-86
2022/11/12 07:29:51;;;;;;;;;28.50;25.00;;;;;10.14;72.22;102769.72;3011627;22;45256;-85
2022/11/12 07:31:04;;;;;;;;;21.50;18.00;;;;;10.17;72.29;102776.72;3000710;22;47218;-86
2022/11/12 07:33:35;;;;;;;;;21.00;21.00;;;;;10.14;72.29;102782.84;3003209;22;46361;-84
2022/11/12 07:34:45;;;;;;;;;25.00;23.75;;;;;10.12;72.41;102782.81;2979989;23;44707;-83
2022/11/12 07:36:01;;;;;;;;;27.00;21.75;;;;;10.14;72.25;102785.47;2982040;23;45276;-85
2022/11/12 07:37:12;;;;;;;;;29.25;26.25;;;;;10.15;72.39;102789.84;3042752;22;45226;-84
2022/11/12 07:38:22;;;;;;;;;27.00;25.00;;;;;10.14;72.43;102793.34;3025963;22;45153;-84
2022/11/12 07:39:32;;;;;;;;;26.50;23.50;;;;;10.14;72.36;102798.63;3057425;22;44636;-84
2022/11/12 07:40:43;;;;;;;;;26.75;26.75;;;;;10.15;72.14;102799.50;3037338;22;45176;-84
2022/11/12 07:41:53;;;;;;;;;23.75;23.75;;;;;10.14;72.11;102795.97;2980685;23;45089;-84
2022/11/12 07:43:03;;;;;;;;;23.00;21.00;;;;;10.13;72.61;102802.97;2980825;23;46625;-83
2022/11/12 07:44:14;;;;;;;;;27.75;25.25;;;;;10.13;72.59;102795.09;2981589;23;45088;-83
2022/11/12 07:45:24;;;;;;;;;24.25;22.25;;;;;10.13;72.34;102792.47;3042035;22;47354;-86
2022/11/12 07:46:35;;;;;;;;;24.50;19.75;;;;;10.12;72.65;102792.47;3025933;22;45370;-84
2022/11/12 07:47:45;;;;;;;;;26.50;25.25;;;;;10.13;72.42;102791.59;2981776;23;45343;-84
2022/11/12 07:48:55;;;;;;;;;24.00;22.00;;;;;10.14;72.48;102790.72;2981863;23;45346;-83
2022/11/12 07:50:06;;;;;;;;;31.00;24.75;;;;;10.13;72.51;102787.22;3042001;22;47279;-84
2022/11/12 07:51:22;;;;;;;;;26.25;23.00;;;;;10.17;72.88;102797.75;3026316;22;45377;-84
2022/11/12 07:52:32;;;;;;;;;30.75;26.50;;;;;10.17;73.03;102793.38;3057861;22;47240;-84
2022/11/12 07:53:44;;;;;;;;;25.25;23.00;;;;;10.16;72.46;102796.88;3037297;22;45337;-85
2022/11/12 07:54:54;;;;;;;;;30.50;28.50;;;;;10.15;72.87;102794.25;3042326;22;48416;-83
2022/11/12 07:56:05;;;;;;;;;30.00;26.75;;;;;10.19;72.94;102802.13;3026122;22;45196;-84
2022/11/12 07:57:16;;;;;;;;;23.75;23.00;;;;;10.19;72.81;102807.38;2982178;22;46332;-84
2022/11/12 07:58:29;;;;;;;;;28.75;25.25;;;;;10.20;72.75;102805.59;2982263;23;45179;-84
2022/11/12 07:59:39;;;;;;;;;23.75;22.25;;;;;10.22;72.42;102801.25;2981900;23;45289;-84
2022/11/12 08:00:50;;;;;;;;;26.50;23.75;;;;;10.24;73.17;102812.66;2982379;23;45190;-84
2022/11/12 08:02:01;;;;;;;;;25.00;23.75;;;;;10.24;73.02;102813.53;2979823;22;45277;-85
2022/11/12 08:03:11;;;;;;;;;29.50;26.25;;;;;10.25;72.82;102819.63;3036194;22;45223;-84
2022/11/12 08:04:21;;;;;;;;;21.50;21.00;;;;;10.26;73.11;102813.53;3044221;22;46970;-84
2022/11/12 08:05:32;;;;;;;;;24.00;20.75;;;;;10.27;72.91;102807.41;3035339;22;45252;-85
2022/11/12 08:06:43;;;;;;;;;28.75;23.00;;;;;10.28;73.08;102824.91;2980757;23;45246;-85
2022/11/12 08:07:56;;;;;;;;;25.50;25.00;;;;;10.31;72.64;102816.16;3040393;22;45291;-85
2022/11/12 08:09:09;;;;;;;;;25.00;24.25;;;;;10.30;73.10;102815.28;3045791;22;45953;-84
2022/11/12 08:10:19;;;;;;;;;28.75;21.75;;;;;10.32;72.98;102818.78;3051925;22;45255;-85
2022/11/12 08:11:30;;;;;;;;;26.00;23.00;;;;;10.34;72.99;102814.44;3040638;22;47128;-85
2022/11/12 08:12:40;;;;;;;;;23.75;21.50;;;;;10.35;73.06;102821.41;3023891;22;45635;-85
2022/11/12 08:13:51;;;;;;;;;23.75;23.00;;;;;10.38;73.25;102823.19;3055781;22;47244;-85
2022/11/12 08:15:01;;;;;;;;;33.00;28.00;;;;;10.38;73.21;102820.53;3051935;22;45669;-85
2022/11/12 08:16:12;;;;;;;;;26.25;20.25;;;;;10.40;73.14;102823.16;3025261;22;46403;-85
2022/11/12 08:17:22;;;;;;;;;25.75;23.50;;;;;10.40;73.24;102815.28;3056659;22;45223;-85
2022/11/12 08:18:33;;;;;;;;;29.25;25.75;;;;;10.42;73.17;102821.44;3041134;22;46847;-85
2022/11/12 08:19:43;;;;;;;;;22.50;21.25;;;;;10.43;72.96;102821.44;3025405;22;45231;-85
2022/11/12 08:21:01;;;;;;;;;25.75;23.00;;;;;10.44;73.37;102825.84;3056182;22;47086;-85
2022/11/12 08:22:11;;;;;;;;;25.75;25.50;;;;;10.49;73.27;102831.09;3050730;22;45236;-85
2022/11/12 08:23:22;;;;;;;;;28.50;22.25;;;;;10.47;73.06;102824.94;3025103;22;46138;-85
2022/11/12 08:24:32;;;;;;;;;28.00;26.75;;;;;10.50;73.06;102826.69;3056551;22;45155;-85
2022/11/12 08:25:42;;;;;;;;;30.75;27.50;;;;;10.52;73.24;102836.38;3035562;22;45371;-87
2022/11/12 08:26:52;;;;;;;;;29.25;24.50;;;;;10.52;73.23;102831.09;2980636;23;44574;-85
2022/11/12 08:28:03;;;;;;;;;31.75;26.00;;;;;10.55;73.45;102835.50;3056521;22;46857;-85
2022/11/12 08:29:14;;;;;;;;;29.25;27.00;;;;;10.57;73.28;102839.00;3050546;22;45227;-85
2022/11/12 08:30:28;;;;;;;;;34.75;30.00;;;;;10.55;73.21;102831.13;3040438;22;48389;-85
2022/11/12 08:31:39;;;;;;;;;25.00;25.00;;;;;10.58;73.37;102839.00;3030467;22;45375;-85
2022/11/12 08:33:02;;;;;;;;;26.00;24.25;;;;;10.58;73.32;102831.13;3024946;22;46376;-85
2022/11/12 08:34:12;;;;;;;;;29.75;26.50;;;;;10.63;73.00;102832.88;3039286;22;45285;-85
2022/11/12 08:35:23;;;;;;;;;30.75;27.50;;;;;10.62;73.20;102828.50;3040845;22;47896;-85
2022/11/12 08:36:33;;;;;;;;;33.75;29.25;;;;;10.64;73.33;102829.38;3024517;22;45294;-86
2022/11/12 08:37:44;;;;;;;;;30.50;26.75;;;;;10.65;73.45;102833.75;2981027;23;46226;-86
2022/11/12 08:38:54;;;;;;;;;27.25;26.50;;;;;10.66;73.77;102831.13;3056799;22;44668;-87
2022/11/12 08:40:05;;;;;;;;;32.25;30.00;;;;;10.69;73.35;102835.53;3040600;22;48204;-87
2022/11/12 08:41:16;;;;;;;;;31.00;29.50;;;;;10.71;73.17;102833.75;3024072;22;44671;-86
2022/11/12 08:42:26;;;;;;;;;37.75;30.75;;;;;10.72;73.48;102834.66;2980612;23;45607;-87
2022/11/12 08:43:39;;;;;;;;;29.00;27.75;;;;;10.76;73.36;102842.53;2981388;22;45295;-87
2022/11/12 08:44:49;;;;;;;;;29.25;27.00;;;;;10.77;73.38;102838.13;3041457;22;48405;-85
2022/11/12 08:46:00;;;;;;;;;29.00;28.00;;;;;10.79;73.43;102842.50;3025360;22;45203;-86
2022/11/12 08:47:11;;;;;;;;;30.25;29.00;;;;;10.80;73.46;102838.13;2980812;22;46311;-87
2022/11/12 08:48:21;;;;;;;;;28.50;26.75;;;;;10.79;73.25;102834.63;2980758;23;45316;-84
2022/11/12 08:49:32;;;;;;;;;25.00;21.25;;;;;10.82;73.30;102832.88;3054825;22;47617;-86
2022/11/12 08:50:42;;;;;;;;;30.00;27.75;;;;;10.83;73.45;102840.78;3041824;22;45232;-85
2022/11/12 08:51:52;;;;;;;;;28.75;25.25;;;;;10.85;73.44;102839.03;3024720;22;46286;-85
2022/11/12 08:53:12;;;;;;;;;27.75;26.75;;;;;10.87;73.28;102836.38;2981536;22;45237;-86
2022/11/12 08:54:23;;;;;;;;;30.75;29.50;;;;;10.89;73.39;102839.91;3041326;22;46938;-86
2022/11/12 08:55:35;;;;;;;;;31.50;27.75;;;;;10.90;73.31;102841.66;3024393;22;45316;-86
2022/11/12 08:56:45;;;;;;;;;25.00;22.00;;;;;10.93;73.31;102843.41;2981006;22;45346;-86
2022/11/12 08:58:00;;;;;;;;;32.25;27.75;;;;;10.93;73.37;102833.75;2981174;23;45263;-87
2022/11/12 08:59:11;;;;;;;;;34.00;27.50;;;;;10.96;73.18;102832.88;3041061;22;48294;-87
2022/11/12 09:00:21;;;;;;;;;24.00;23.50;;;;;10.97;73.45;102832.88;3025723;22;44586;-86
2022/11/12 09:01:32;;;;;;;;;23.25;22.25;;;;;11.00;73.19;102832.00;2981011;23;46110;-86
2022/11/12 09:02:42;;;;;;;;;29.75;25.00;;;;;10.99;73.00;102831.09;2981554;22;45229;-86
2022/11/12 09:03:53;;;;;;;;;29.25;24.75;;;;;11.00;73.15;102824.97;3040654;22;48155;-86
2022/11/12 09:05:04;;;;;;;;;25.75;23.25;;;;;11.04;73.17;102833.72;3025450;22;45286;-86
2022/11/12 09:06:14;;;;;;;;;32.50;26.50;;;;;11.05;73.58;102831.97;2980063;23;47384;-86
2022/11/12 09:07:25;;;;;;;;;28.00;23.25;;;;;11.02;73.41;102831.13;2981131;22;45391;-86
2022/11/12 09:08:36;;;;;;;;;23.75;23.00;;;;;11.05;73.16;102834.63;3055349;22;47122;-86
2022/11/12 09:09:46;;;;;;;;;26.25;22.00;;;;;11.06;73.14;102831.13;3041643;22;45326;-86
2022/11/12 09:10:57;;;;;;;;;27.50;26.25;;;;;11.10;73.13;102828.47;3024387;22;45309;-86
2022/11/12 09:12:08;;;;;;;;;25.75;25.00;;;;;11.11;73.13;102830.22;3040627;22;45310;-86
2022/11/12 09:13:18;;;;;;;;;27.25;25.50;;;;;11.13;72.98;102830.22;3028634;22;47038;-86
2022/11/12 09:14:29;;;;;;;;;25.75;24.00;;;;;11.15;73.06;102831.09;3039793;22;45656;-87
2022/11/12 09:15:39;;;;;;;;;29.00;26.75;;;;;11.15;73.09;102831.09;3033978;22;46106;-87
2022/11/12 09:16:50;;;;;;;;;30.25;26.00;;;;;11.15;73.10;102828.47;3041369;22;45367;-87
2022/11/12 09:18:02;;;;;;;;;27.75;26.75;;;;;11.18;72.87;102835.47;3023753;22;46329;-87
2022/11/12 09:19:13;;;;;;;;;31.25;27.25;;;;;11.19;73.25;102838.09;2980413;23;45478;-86
2022/11/12 09:20:24;;;;;;;;;21.50;21.00;;;;;11.21;73.15;102833.69;3039932;22;47315;-87
2022/11/12 09:21:34;;;;;;;;;27.75;24.25;;;;;11.22;73.43;102826.69;3040581;22;44652;-86
2022/11/12 09:22:44;;;;;;;;;24.25;22.50;;;;;11.23;73.40;102824.06;3023660;22;45388;-86
2022/11/12 09:23:55;;;;;;;;;28.75;27.50;;;;;11.23;73.15;102826.72;2979767;22;45244;-85
2022/11/12 09:25:05;;;;;;;;;34.50;29.50;;;;;11.27;72.97;102835.47;3040447;22;46213;-86
2022/11/12 09:26:16;;;;;;;;;26.50;24.00;;;;;11.28;72.87;102829.31;3030453;22;45433;-86
2022/11/12 09:27:27;;;;;;;;;26.25;23.25;;;;;11.29;73.46;102827.53;3044782;22;47830;-86
2022/11/12 09:28:37;;;;;;;;;25.75;25.25;;;;;11.29;72.88;102822.28;3040877;22;44895;-87
2022/11/12 09:29:47;;;;;;;;;28.00;23.50;;;;;11.28;72.94;102818.78;3024654;22;45345;-86
2022/11/12 09:30:58;;;;;;;;;32.25;28.50;;;;;11.31;72.95;102823.19;3039866;22;45452;-86
2022/11/12 09:32:08;;;;;;;;;29.25;26.00;;;;;11.32;72.95;102817.91;3023422;22;45380;-86
2022/11/12 09:33:26;;;;;;;;;28.75;27.25;;;;;11.35;73.15;102820.53;2979825;23;45258;-85
2022/11/12 09:34:36;;;;;;;;;31.00;27.00;;;;;11.35;72.95;102812.63;3040737;22;46070;-87
2022/11/12 09:35:47;;;;;;;;;28.25;27.00;;;;;11.36;73.07;102817.00;3040856;22;45408;-86